This is the latest recevied weather packets stored in our database for station/object VE3VGJ. If no packets are shown the sender has not sent any weather packets the latest 10 day(s).
| Time | Temp. | Humidity | Pressure | Rain* | Wind** | Luminosity | Snow |
|---|---|---|---|---|---|---|---|
| 1777810092 | 3.89° C | 56% | 1013.3 hPa | 0 mm | - | 108 W/m² | - |
| 1777809790 | 4.44° C | 53% | 1013.5 hPa | 0 mm | - | 99 W/m² | - |
| 1777809488 | 3.89° C | 56% | 1013.6 hPa | 0 mm | - | 193 W/m² | - |
| 1777809185 | 3.89° C | 58% | 1013.3 hPa | 0 mm | - | 177 W/m² | - |
| 1777808883 | 3.33° C | 61% | 1013.3 hPa | 0 mm | - | 162 W/m² | - |
| 1777808579 | 3.33° C | 60% | 1013.2 hPa | 0 mm | - | 148 W/m² | - |
| 1777808276 | 2.78° C | 62% | 1013.2 hPa | 0 mm | - | 138 W/m² | - |
| 1777807975 | 2.78° C | 62% | 1013.3 hPa | 0 mm | - | 126 W/m² | - |
| 1777807672 | 2.22° C | 64% | 1013.3 hPa | 0 mm | - | 111 W/m² | - |
| 1777807370 | 1.67° C | 65% | 1013.5 hPa | 0 mm | - | 98 W/m² | - |
| 1777807065 | 1.67° C | 66% | 1013.3 hPa | 0 mm | - | 88 W/m² | - |
| 1777806763 | 1.11° C | 69% | 1013.4 hPa | 0 mm | - | 78 W/m² | - |
| 1777806458 | 0.56° C | 71% | 1013.1 hPa | 0 mm | - | 68 W/m² | - |
| 1777806155 | 0° C | 75% | 1013.4 hPa | 0 mm | - | 59 W/m² | - |
| 1777805852 | -0.56° C | 79% | 1013.2 hPa | 0 mm | - | 51 W/m² | - |
| 1777805549 | -1.11° C | 81% | 1013.3 hPa | 0 mm | - | 44 W/m² | - |
| 1777805246 | -1.67° C | 81% | 1013.2 hPa | 0 mm | - | 33 W/m² | - |
| 1777804945 | -1.67° C | 81% | 1013.1 hPa | 0 mm | - | 26 W/m² | - |
| 1777804642 | -1.67° C | 82% | 1013.2 hPa | 0 mm | - | 22 W/m² | - |
| 1777804340 | -2.22° C | 83% | 1013.1 hPa | 0 mm | - | 19 W/m² | - |
| 1777804036 | -2.22° C | 84% | 1013.1 hPa | 0 mm | - | 16 W/m² | - |
| 1777803733 | -2.22° C | 84% | 1013.1 hPa | 0 mm | - | 12 W/m² | - |
| 1777803428 | -2.22° C | 84% | 1013 hPa | 0 mm | - | 9 W/m² | - |
| 1777803126 | -2.22° C | 85% | 1013.3 hPa | 0 mm | - | 6 W/m² | - |
| 1777802823 | -2.22° C | 85% | 1013.3 hPa | 0 mm | - | 4 W/m² | - |
* Rain latest hour (hover to see other rain measurements)
** Current wind speed in m/s (hover to see current wind gust speed)